createdAt,value
2023-05-14T00:07:57.486Z,14.71
2023-05-14T00:19:02.998Z,14.49
2023-05-14T00:30:10.844Z,14.51
2023-05-14T00:41:40.861Z,14.34
2023-05-14T00:51:48.762Z,14.17
2023-05-14T01:02:05.982Z,14.19
2023-05-14T01:13:00.136Z,14.24
2023-05-14T01:24:07.814Z,14.07
2023-05-14T01:35:16.920Z,13.86
2023-05-14T01:45:45.964Z,13.84
2023-05-14T01:55:51.786Z,13.79
2023-05-14T02:06:37.110Z,13.68
2023-05-14T02:16:48.950Z,13.40
2023-05-14T02:27:03.144Z,13.35
2023-05-14T02:37:10.861Z,13.39
2023-05-14T02:47:17.461Z,13.34
2023-05-14T02:58:27.017Z,13.42
2023-05-14T03:09:48.996Z,13.16
2023-05-14T03:21:15.367Z,13.32
2023-05-14T03:31:22.916Z,13.68
2023-05-14T03:41:28.642Z,13.93
2023-05-14T03:51:35.795Z,14.77
2023-05-14T04:01:47.647Z,18.24
2023-05-14T04:12:53.059Z,25.40
2023-05-14T04:24:01.774Z,29.86
2023-05-14T04:34:06.678Z,32.74
2023-05-14T04:44:14.509Z,35.04
2023-05-14T04:54:59.270Z,37.98
2023-05-14T05:05:04.767Z,39.74
2023-05-14T05:15:16.876Z,40.43
2023-05-14T05:25:23.920Z,39.94
2023-05-14T05:36:45.008Z,34.19
2023-05-14T05:47:52.515Z,30.24
2023-05-14T05:58:03.040Z,27.86
2023-05-14T06:08:10.301Z,26.30
2023-05-14T06:18:20.374Z,25.14
2023-05-14T06:29:08.334Z,24.90
2023-05-14T06:39:18.016Z,24.71
2023-05-14T06:49:39.373Z,24.72
2023-05-14T06:59:46.647Z,24.57
2023-05-14T07:09:58.383Z,24.57
2023-05-14T07:20:46.981Z,24.46
2023-05-14T07:31:01.078Z,24.52
2023-05-14T07:41:29.945Z,24.62
2023-05-14T07:51:35.872Z,24.80
2023-05-14T08:01:43.109Z,24.68
2023-05-14T08:11:52.576Z,24.84
2023-05-14T08:22:00.494Z,24.97
2023-05-14T08:32:22.869Z,24.98
2023-05-14T08:42:33.449Z,25.16
2023-05-14T08:52:45.266Z,25.39
2023-05-14T09:02:51.404Z,25.37
2023-05-14T09:12:58.528Z,25.49
2023-05-14T09:24:08.544Z,25.69
2023-05-14T09:35:16.731Z,26.10
2023-05-14T09:46:22.693Z,27.02
2023-05-14T09:56:55.830Z,27.68
2023-05-14T10:07:05.044Z,28.19
2023-05-14T10:17:20.524Z,28.45
2023-05-14T10:27:26.759Z,28.52
2023-05-14T10:37:34.282Z,28.59
2023-05-14T10:47:59.366Z,29.12
2023-05-14T10:58:08.139Z,29.90
2023-05-14T11:08:13.307Z,29.61
2023-05-14T11:18:34.652Z,29.51
2023-05-14T11:28:40.528Z,29.73
2023-05-14T11:38:55.194Z,29.98
2023-05-14T11:50:03.377Z,29.96
2023-05-14T12:00:32.871Z,28.78
2023-05-14T12:10:42.985Z,28.78
2023-05-14T12:20:52.890Z,29.09
2023-05-14T12:31:58.364Z,28.89
2023-05-14T12:42:15.948Z,29.43
2023-05-14T12:52:36.142Z,29.33
2023-05-14T13:02:44.715Z,28.80
2023-05-14T13:13:31.357Z,28.79
2023-05-14T13:23:37.766Z,29.53
2023-05-14T13:34:22.330Z,28.89
2023-05-14T13:44:30.908Z,28.23
2023-05-14T13:55:39.047Z,28.43
2023-05-14T14:05:50.231Z,28.68
2023-05-14T14:15:55.176Z,28.57
2023-05-14T14:26:26.286Z,28.43
2023-05-14T14:36:30.999Z,28.47
2023-05-14T14:47:37.507Z,28.48
2023-05-14T14:58:02.757Z,28.24
2023-05-14T15:09:12.659Z,27.97
2023-05-14T15:19:58.780Z,27.59
2023-05-14T15:30:06.965Z,26.88
2023-05-14T15:40:55.081Z,26.70
2023-05-14T15:51:07.086Z,27.26
2023-05-14T16:02:13.871Z,27.70
2023-05-14T16:13:04.503Z,27.10
2023-05-14T16:24:10.868Z,27.03
2023-05-14T16:34:18.243Z,26.14
2023-05-14T16:44:28.093Z,25.54
2023-05-14T16:55:15.203Z,25.27
2023-05-14T17:05:21.629Z,25.11
2023-05-14T17:16:09.028Z,24.99
2023-05-14T17:27:17.824Z,24.80
2023-05-14T17:37:44.764Z,24.50
2023-05-14T17:48:50.308Z,24.26
2023-05-14T17:58:53.978Z,23.94
2023-05-14T18:08:57.528Z,23.67
2023-05-14T18:19:01.370Z,23.11
2023-05-14T18:29:05.054Z,22.57
2023-05-14T18:39:08.763Z,22.38
2023-05-14T18:49:12.421Z,22.15
2023-05-14T18:59:16.047Z,21.85
2023-05-14T19:09:21.475Z,21.44
2023-05-14T19:19:26.066Z,21.12
2023-05-14T19:29:29.692Z,20.85
2023-05-14T19:39:33.293Z,20.45
2023-05-14T19:49:39.290Z,20.14
2023-05-14T19:59:44.758Z,19.83
2023-05-14T20:09:48.312Z,19.41
2023-05-14T20:19:52.620Z,19.18
2023-05-14T20:29:56.284Z,19.09
2023-05-14T20:40:04.524Z,19.00
2023-05-14T20:50:08.739Z,18.76
2023-05-14T21:00:13.437Z,18.40
2023-05-14T21:10:17.410Z,18.17
2023-05-14T21:20:21.158Z,18.18
2023-05-14T21:30:24.805Z,17.77
2023-05-14T21:40:28.413Z,17.71
2023-05-14T21:50:32.456Z,17.76
2023-05-14T22:00:36.244Z,17.72
2023-05-14T22:10:39.857Z,17.62
2023-05-14T22:20:43.478Z,17.57
2023-05-14T22:30:47.102Z,17.57
2023-05-14T22:40:50.780Z,17.45
2023-05-14T22:50:55.013Z,17.30
2023-05-14T23:01:21.080Z,17.13
2023-05-14T23:11:26.453Z,17.07
2023-05-14T23:21:36.162Z,17.02
2023-05-14T23:31:41.315Z,16.84
2023-05-14T23:41:44.967Z,16.78
2023-05-14T23:51:48.543Z,16.84
